sensor_id;sensor_type;location;lat;lon;timestamp;P1;durP1;ratioP1;P2;durP2;ratioP2
77948;SDS011;67146;51.236;-0.336;2023-04-24T00:00:04;27.35;;;11.93;;
77948;SDS011;67146;51.236;-0.336;2023-04-24T00:02:31;27.05;;;10.95;;
77948;SDS011;67146;51.236;-0.336;2023-04-24T00:04:57;28.35;;;10.75;;
77948;SDS011;67146;51.236;-0.336;2023-04-24T00:07:27;29.20;;;10.90;;
77948;SDS011;67146;51.236;-0.336;2023-04-24T00:09:52;27.65;;;11.52;;
77948;SDS011;67146;51.236;-0.336;2023-04-24T00:12:18;31.73;;;11.47;;
77948;SDS011;67146;51.236;-0.336;2023-04-24T00:14:43;27.33;;;11.77;;
77948;SDS011;67146;51.236;-0.336;2023-04-24T00:17:08;26.17;;;11.50;;
77948;SDS011;67146;51.236;-0.336;2023-04-24T00:19:34;27.80;;;10.43;;
77948;SDS011;67146;51.236;-0.336;2023-04-24T00:21:59;28.10;;;10.17;;
77948;SDS011;67146;51.236;-0.336;2023-04-24T00:24:24;25.93;;;10.87;;
77948;SDS011;67146;51.236;-0.336;2023-04-24T00:26:50;22.47;;;9.03;;
77948;SDS011;67146;51.236;-0.336;2023-04-24T00:29:15;24.23;;;10.13;;
77948;SDS011;67146;51.236;-0.336;2023-04-24T00:31:41;24.83;;;10.53;;
77948;SDS011;67146;51.236;-0.336;2023-04-24T00:34:06;25.20;;;9.63;;
77948;SDS011;67146;51.236;-0.336;2023-04-24T00:36:32;22.65;;;9.27;;
77948;SDS011;67146;51.236;-0.336;2023-04-24T00:38:58;26.63;;;10.07;;
77948;SDS011;67146;51.236;-0.336;2023-04-24T00:41:24;26.33;;;10.47;;
77948;SDS011;67146;51.236;-0.336;2023-04-24T00:43:50;24.23;;;10.30;;
77948;SDS011;67146;51.236;-0.336;2023-04-24T00:46:16;28.00;;;11.10;;
77948;SDS011;67146;51.236;-0.336;2023-04-24T00:48:41;25.25;;;10.50;;
77948;SDS011;67146;51.236;-0.336;2023-04-24T00:51:08;25.88;;;10.23;;
77948;SDS011;67146;51.236;-0.336;2023-04-24T00:53:33;25.80;;;10.15;;
77948;SDS011;67146;51.236;-0.336;2023-04-24T00:55:58;26.47;;;10.77;;
77948;SDS011;67146;51.236;-0.336;2023-04-24T00:58:24;27.58;;;10.63;;
77948;SDS011;67146;51.236;-0.336;2023-04-24T01:00:50;26.80;;;9.65;;
77948;SDS011;67146;51.236;-0.336;2023-04-24T01:03:22;26.02;;;10.60;;
77948;SDS011;67146;51.236;-0.336;2023-04-24T01:05:51;27.00;;;10.93;;
77948;SDS011;67146;51.236;-0.336;2023-04-24T01:08:17;27.27;;;10.68;;
77948;SDS011;67146;51.236;-0.336;2023-04-24T01:10:42;25.42;;;10.20;;
77948;SDS011;67146;51.236;-0.336;2023-04-24T01:13:09;28.25;;;10.60;;
77948;SDS011;67146;51.236;-0.336;2023-04-24T01:15:34;27.77;;;11.48;;
77948;SDS011;67146;51.236;-0.336;2023-04-24T01:18:00;27.70;;;11.25;;
77948;SDS011;67146;51.236;-0.336;2023-04-24T01:20:25;25.50;;;10.30;;
77948;SDS011;67146;51.236;-0.336;2023-04-24T01:22:51;27.60;;;11.23;;
77948;SDS011;67146;51.236;-0.336;2023-04-24T01:25:17;27.02;;;11.25;;
77948;SDS011;67146;51.236;-0.336;2023-04-24T01:27:43;29.27;;;11.20;;
77948;SDS011;67146;51.236;-0.336;2023-04-24T01:30:08;25.85;;;10.45;;
77948;SDS011;67146;51.236;-0.336;2023-04-24T01:32:35;24.80;;;9.98;;
77948;SDS011;67146;51.236;-0.336;2023-04-24T01:35:01;24.13;;;9.27;;
77948;SDS011;67146;51.236;-0.336;2023-04-24T01:37:26;21.75;;;9.40;;
77948;SDS011;67146;51.236;-0.336;2023-04-24T01:39:52;22.53;;;10.40;;
77948;SDS011;67146;51.236;-0.336;2023-04-24T01:42:17;27.15;;;10.07;;
77948;SDS011;67146;51.236;-0.336;2023-04-24T01:44:43;24.17;;;10.07;;
77948;SDS011;67146;51.236;-0.336;2023-04-24T01:47:08;25.63;;;10.77;;
77948;SDS011;67146;51.236;-0.336;2023-04-24T01:49:34;26.55;;;10.13;;
77948;SDS011;67146;51.236;-0.336;2023-04-24T01:51:59;25.10;;;10.05;;
77948;SDS011;67146;51.236;-0.336;2023-04-24T01:54:25;25.27;;;10.27;;
77948;SDS011;67146;51.236;-0.336;2023-04-24T01:56:50;24.40;;;10.40;;
77948;SDS011;67146;51.236;-0.336;2023-04-24T01:59:16;22.38;;;9.55;;
77948;SDS011;67146;51.236;-0.336;2023-04-24T02:01:42;25.85;;;9.95;;
77948;SDS011;67146;51.236;-0.336;2023-04-24T02:04:07;24.43;;;9.33;;
77948;SDS011;67146;51.236;-0.336;2023-04-24T02:06:32;26.65;;;9.73;;
77948;SDS011;67146;51.236;-0.336;2023-04-24T02:08:58;28.63;;;11.30;;
77948;SDS011;67146;51.236;-0.336;2023-04-24T02:11:24;26.27;;;11.15;;
77948;SDS011;67146;51.236;-0.336;2023-04-24T02:13:49;28.83;;;12.63;;
77948;SDS011;67146;51.236;-0.336;2023-04-24T02:16:16;27.52;;;11.00;;
77948;SDS011;67146;51.236;-0.336;2023-04-24T02:18:41;27.30;;;11.55;;
77948;SDS011;67146;51.236;-0.336;2023-04-24T02:21:07;25.23;;;10.47;;
77948;SDS011;67146;51.236;-0.336;2023-04-24T02:23:32;26.55;;;11.05;;
77948;SDS011;67146;51.236;-0.336;2023-04-24T02:25:57;28.70;;;10.30;;
77948;SDS011;67146;51.236;-0.336;2023-04-24T02:28:23;22.90;;;10.33;;
77948;SDS011;67146;51.236;-0.336;2023-04-24T02:30:48;22.92;;;10.80;;
77948;SDS011;67146;51.236;-0.336;2023-04-24T02:33:13;27.30;;;10.57;;
77948;SDS011;67146;51.236;-0.336;2023-04-24T02:35:39;26.83;;;11.20;;
77948;SDS011;67146;51.236;-0.336;2023-04-24T02:38:04;24.08;;;9.43;;
77948;SDS011;67146;51.236;-0.336;2023-04-24T02:40:30;26.55;;;10.57;;
77948;SDS011;67146;51.236;-0.336;2023-04-24T02:42:55;25.07;;;10.37;;
77948;SDS011;67146;51.236;-0.336;2023-04-24T02:45:21;20.00;;;9.05;;
77948;SDS011;67146;51.236;-0.336;2023-04-24T02:47:46;23.38;;;10.15;;
77948;SDS011;67146;51.236;-0.336;2023-04-24T02:50:11;20.40;;;8.47;;
77948;SDS011;67146;51.236;-0.336;2023-04-24T02:52:37;22.87;;;9.87;;
77948;SDS011;67146;51.236;-0.336;2023-04-24T02:55:02;19.83;;;9.00;;
77948;SDS011;67146;51.236;-0.336;2023-04-24T02:57:27;24.02;;;9.18;;
77948;SDS011;67146;51.236;-0.336;2023-04-24T02:59:53;24.98;;;9.52;;
77948;SDS011;67146;51.236;-0.336;2023-04-24T03:02:18;21.30;;;8.70;;
77948;SDS011;67146;51.236;-0.336;2023-04-24T03:04:45;22.40;;;9.05;;
77948;SDS011;67146;51.236;-0.336;2023-04-24T03:07:12;24.20;;;8.93;;
77948;SDS011;67146;51.236;-0.336;2023-04-24T03:09:39;21.65;;;9.00;;
77948;SDS011;67146;51.236;-0.336;2023-04-24T03:12:05;19.98;;;9.32;;
77948;SDS011;67146;51.236;-0.336;2023-04-24T03:14:30;21.85;;;9.57;;
77948;SDS011;67146;51.236;-0.336;2023-04-24T03:16:56;21.67;;;9.48;;
77948;SDS011;67146;51.236;-0.336;2023-04-24T03:19:21;22.70;;;9.52;;
77948;SDS011;67146;51.236;-0.336;2023-04-24T03:21:47;19.00;;;8.55;;
77948;SDS011;67146;51.236;-0.336;2023-04-24T03:24:13;23.67;;;9.15;;
77948;SDS011;67146;51.236;-0.336;2023-04-24T03:26:38;22.20;;;9.70;;
77948;SDS011;67146;51.236;-0.336;2023-04-24T03:29:03;24.67;;;9.90;;
77948;SDS011;67146;51.236;-0.336;2023-04-24T03:31:29;23.53;;;9.10;;
77948;SDS011;67146;51.236;-0.336;2023-04-24T03:33:54;21.90;;;9.27;;
77948;SDS011;67146;51.236;-0.336;2023-04-24T03:36:19;25.38;;;9.90;;
77948;SDS011;67146;51.236;-0.336;2023-04-24T03:38:45;22.63;;;8.90;;
77948;SDS011;67146;51.236;-0.336;2023-04-24T03:41:10;21.73;;;9.25;;
77948;SDS011;67146;51.236;-0.336;2023-04-24T03:43:36;22.27;;;9.18;;
77948;SDS011;67146;51.236;-0.336;2023-04-24T03:46:02;21.33;;;8.15;;
77948;SDS011;67146;51.236;-0.336;2023-04-24T03:48:27;23.52;;;9.25;;
77948;SDS011;67146;51.236;-0.336;2023-04-24T03:50:53;20.67;;;8.68;;
77948;SDS011;67146;51.236;-0.336;2023-04-24T03:53:18;21.00;;;9.40;;
77948;SDS011;67146;51.236;-0.336;2023-04-24T03:55:44;22.20;;;8.60;;
77948;SDS011;67146;51.236;-0.336;2023-04-24T03:58:10;21.08;;;9.07;;
77948;SDS011;67146;51.236;-0.336;2023-04-24T04:00:36;22.42;;;7.70;;
77948;SDS011;67146;51.236;-0.336;2023-04-24T04:03:02;20.15;;;8.88;;
77948;SDS011;67146;51.236;-0.336;2023-04-24T04:05:28;21.35;;;8.70;;
77948;SDS011;67146;51.236;-0.336;2023-04-24T04:07:53;21.13;;;8.70;;
77948;SDS011;67146;51.236;-0.336;2023-04-24T04:10:19;19.07;;;7.80;;
77948;SDS011;67146;51.236;-0.336;2023-04-24T04:12:44;20.10;;;8.57;;
77948;SDS011;67146;51.236;-0.336;2023-04-24T04:15:10;20.15;;;8.15;;
77948;SDS011;67146;51.236;-0.336;2023-04-24T04:17:35;19.95;;;8.70;;
77948;SDS011;67146;51.236;-0.336;2023-04-24T04:20:02;22.73;;;8.93;;
77948;SDS011;67146;51.236;-0.336;2023-04-24T04:22:32;18.63;;;8.07;;
77948;SDS011;67146;51.236;-0.336;2023-04-24T04:24:57;21.02;;;8.68;;
77948;SDS011;67146;51.236;-0.336;2023-04-24T04:27:22;21.50;;;7.65;;
77948;SDS011;67146;51.236;-0.336;2023-04-24T04:29:48;18.25;;;7.43;;
77948;SDS011;67146;51.236;-0.336;2023-04-24T04:32:13;20.20;;;8.23;;
77948;SDS011;67146;51.236;-0.336;2023-04-24T04:34:39;18.75;;;8.32;;
77948;SDS011;67146;51.236;-0.336;2023-04-24T04:37:05;19.90;;;9.60;;
77948;SDS011;67146;51.236;-0.336;2023-04-24T04:39:30;19.58;;;8.27;;
77948;SDS011;67146;51.236;-0.336;2023-04-24T04:41:56;17.00;;;7.00;;
77948;SDS011;67146;51.236;-0.336;2023-04-24T04:44:21;17.48;;;7.45;;
77948;SDS011;67146;51.236;-0.336;2023-04-24T04:46:48;18.27;;;7.78;;
77948;SDS011;67146;51.236;-0.336;2023-04-24T04:49:13;20.95;;;8.30;;
77948;SDS011;67146;51.236;-0.336;2023-04-24T04:51:41;17.88;;;7.55;;
77948;SDS011;67146;51.236;-0.336;2023-04-24T04:54:07;16.98;;;7.22;;
77948;SDS011;67146;51.236;-0.336;2023-04-24T04:56:32;21.83;;;7.53;;
77948;SDS011;67146;51.236;-0.336;2023-04-24T04:58:57;18.07;;;7.63;;
77948;SDS011;67146;51.236;-0.336;2023-04-24T05:01:24;18.48;;;7.32;;
77948;SDS011;67146;51.236;-0.336;2023-04-24T05:03:50;16.83;;;7.63;;
77948;SDS011;67146;51.236;-0.336;2023-04-24T05:06:16;19.45;;;6.95;;
77948;SDS011;67146;51.236;-0.336;2023-04-24T05:08:41;15.65;;;6.15;;
77948;SDS011;67146;51.236;-0.336;2023-04-24T05:11:06;18.37;;;8.00;;
77948;SDS011;67146;51.236;-0.336;2023-04-24T05:13:32;17.70;;;7.45;;
77948;SDS011;67146;51.236;-0.336;2023-04-24T05:15:57;17.83;;;7.15;;
77948;SDS011;67146;51.236;-0.336;2023-04-24T05:18:23;16.33;;;6.82;;
77948;SDS011;67146;51.236;-0.336;2023-04-24T05:20:49;15.10;;;6.45;;
77948;SDS011;67146;51.236;-0.336;2023-04-24T05:23:14;17.07;;;6.83;;
77948;SDS011;67146;51.236;-0.336;2023-04-24T05:25:40;18.33;;;7.53;;
77948;SDS011;67146;51.236;-0.336;2023-04-24T05:28:06;18.92;;;7.28;;
77948;SDS011;67146;51.236;-0.336;2023-04-24T05:30:32;15.98;;;6.85;;
77948;SDS011;67146;51.236;-0.336;2023-04-24T05:32:57;18.33;;;7.53;;
77948;SDS011;67146;51.236;-0.336;2023-04-24T05:35:22;14.00;;;5.83;;
77948;SDS011;67146;51.236;-0.336;2023-04-24T05:37:48;16.70;;;6.03;;
77948;SDS011;67146;51.236;-0.336;2023-04-24T05:40:13;14.67;;;7.00;;
77948;SDS011;67146;51.236;-0.336;2023-04-24T05:42:38;14.80;;;7.03;;
77948;SDS011;67146;51.236;-0.336;2023-04-24T05:45:05;16.10;;;6.55;;
77948;SDS011;67146;51.236;-0.336;2023-04-24T05:47:30;15.70;;;6.30;;
77948;SDS011;67146;51.236;-0.336;2023-04-24T05:49:56;15.20;;;6.40;;
77948;SDS011;67146;51.236;-0.336;2023-04-24T05:52:21;15.55;;;6.30;;
77948;SDS011;67146;51.236;-0.336;2023-04-24T05:54:47;15.80;;;7.32;;
77948;SDS011;67146;51.236;-0.336;2023-04-24T05:57:12;13.93;;;6.00;;
77948;SDS011;67146;51.236;-0.336;2023-04-24T05:59:38;14.27;;;5.65;;
77948;SDS011;67146;51.236;-0.336;2023-04-24T06:02:03;13.00;;;6.35;;
77948;SDS011;67146;51.236;-0.336;2023-04-24T06:04:29;15.00;;;7.88;;
77948;SDS011;67146;51.236;-0.336;2023-04-24T06:06:54;14.43;;;5.60;;
77948;SDS011;67146;51.236;-0.336;2023-04-24T06:09:23;12.43;;;5.47;;
77948;SDS011;67146;51.236;-0.336;2023-04-24T06:11:49;11.57;;;5.82;;
77948;SDS011;67146;51.236;-0.336;2023-04-24T06:14:17;12.30;;;6.70;;
77948;SDS011;67146;51.236;-0.336;2023-04-24T06:16:43;12.57;;;5.40;;
77948;SDS011;67146;51.236;-0.336;2023-04-24T06:19:08;13.05;;;6.25;;
77948;SDS011;67146;51.236;-0.336;2023-04-24T06:21:34;12.10;;;4.65;;
77948;SDS011;67146;51.236;-0.336;2023-04-24T06:23:59;12.50;;;5.13;;
77948;SDS011;67146;51.236;-0.336;2023-04-24T06:26:25;13.48;;;5.45;;
77948;SDS011;67146;51.236;-0.336;2023-04-24T06:28:51;12.32;;;6.00;;
77948;SDS011;67146;51.236;-0.336;2023-04-24T06:31:18;13.05;;;5.80;;
77948;SDS011;67146;51.236;-0.336;2023-04-24T06:33:44;14.85;;;6.05;;
77948;SDS011;67146;51.236;-0.336;2023-04-24T06:36:10;14.77;;;6.13;;
77948;SDS011;67146;51.236;-0.336;2023-04-24T06:38:35;16.33;;;6.13;;
77948;SDS011;67146;51.236;-0.336;2023-04-24T06:41:01;12.48;;;5.15;;
77948;SDS011;67146;51.236;-0.336;2023-04-24T06:43:26;15.63;;;5.95;;
77948;SDS011;67146;51.236;-0.336;2023-04-24T06:45:51;13.50;;;7.47;;
77948;SDS011;67146;51.236;-0.336;2023-04-24T06:48:17;16.08;;;6.72;;
77948;SDS011;67146;51.236;-0.336;2023-04-24T06:50:42;12.10;;;6.27;;
77948;SDS011;67146;51.236;-0.336;2023-04-24T06:53:07;14.43;;;6.35;;
77948;SDS011;67146;51.236;-0.336;2023-04-24T06:55:35;14.38;;;5.70;;
77948;SDS011;67146;51.236;-0.336;2023-04-24T06:58:02;11.30;;;5.63;;
77948;SDS011;67146;51.236;-0.336;2023-04-24T07:00:27;13.13;;;6.18;;
77948;SDS011;67146;51.236;-0.336;2023-04-24T07:02:54;10.70;;;5.03;;
77948;SDS011;67146;51.236;-0.336;2023-04-24T07:05:20;12.77;;;5.90;;
77948;SDS011;67146;51.236;-0.336;2023-04-24T07:07:46;13.82;;;7.40;;
77948;SDS011;67146;51.236;-0.336;2023-04-24T07:10:12;12.68;;;6.15;;
77948;SDS011;67146;51.236;-0.336;2023-04-24T07:12:38;12.00;;;6.57;;
77948;SDS011;67146;51.236;-0.336;2023-04-24T07:15:03;14.65;;;7.03;;
77948;SDS011;67146;51.236;-0.336;2023-04-24T07:17:30;13.23;;;6.55;;
77948;SDS011;67146;51.236;-0.336;2023-04-24T07:19:55;14.32;;;5.70;;
77948;SDS011;67146;51.236;-0.336;2023-04-24T07:22:21;12.33;;;6.80;;
77948;SDS011;67146;51.236;-0.336;2023-04-24T07:24:46;11.55;;;6.18;;
77948;SDS011;67146;51.236;-0.336;2023-04-24T07:27:11;14.50;;;6.47;;
77948;SDS011;67146;51.236;-0.336;2023-04-24T07:29:37;13.40;;;5.82;;
77948;SDS011;67146;51.236;-0.336;2023-04-24T07:32:03;11.73;;;5.43;;
77948;SDS011;67146;51.236;-0.336;2023-04-24T07:34:28;11.35;;;5.45;;
77948;SDS011;67146;51.236;-0.336;2023-04-24T07:36:54;10.32;;;5.35;;
77948;SDS011;67146;51.236;-0.336;2023-04-24T07:39:20;13.32;;;6.63;;
77948;SDS011;67146;51.236;-0.336;2023-04-24T07:41:45;10.63;;;4.78;;
77948;SDS011;67146;51.236;-0.336;2023-04-24T07:44:10;12.57;;;6.03;;
77948;SDS011;67146;51.236;-0.336;2023-04-24T07:46:36;10.10;;;5.95;;
77948;SDS011;67146;51.236;-0.336;2023-04-24T07:49:01;8.85;;;4.82;;
77948;SDS011;67146;51.236;-0.336;2023-04-24T07:51:27;11.30;;;4.73;;
77948;SDS011;67146;51.236;-0.336;2023-04-24T07:53:53;10.60;;;5.28;;
77948;SDS011;67146;51.236;-0.336;2023-04-24T07:56:20;11.77;;;5.07;;
77948;SDS011;67146;51.236;-0.336;2023-04-24T07:58:45;8.90;;;4.68;;
77948;SDS011;67146;51.236;-0.336;2023-04-24T08:01:11;7.93;;;5.00;;
77948;SDS011;67146;51.236;-0.336;2023-04-24T08:03:36;9.43;;;4.80;;
77948;SDS011;67146;51.236;-0.336;2023-04-24T08:06:01;8.13;;;4.00;;
77948;SDS011;67146;51.236;-0.336;2023-04-24T08:08:27;10.05;;;4.45;;
77948;SDS011;67146;51.236;-0.336;2023-04-24T08:10:52;8.85;;;4.75;;
77948;SDS011;67146;51.236;-0.336;2023-04-24T08:13:17;8.45;;;4.45;;
77948;SDS011;67146;51.236;-0.336;2023-04-24T08:15:43;8.65;;;4.80;;
77948;SDS011;67146;51.236;-0.336;2023-04-24T08:18:09;8.82;;;4.60;;
77948;SDS011;67146;51.236;-0.336;2023-04-24T08:20:36;8.13;;;4.97;;
77948;SDS011;67146;51.236;-0.336;2023-04-24T08:23:02;10.50;;;4.28;;
77948;SDS011;67146;51.236;-0.336;2023-04-24T08:25:27;8.77;;;4.18;;
77948;SDS011;67146;51.236;-0.336;2023-04-24T08:27:52;8.03;;;4.30;;
77948;SDS011;67146;51.236;-0.336;2023-04-24T08:30:18;8.85;;;4.47;;
77948;SDS011;67146;51.236;-0.336;2023-04-24T08:32:43;9.00;;;4.10;;
77948;SDS011;67146;51.236;-0.336;2023-04-24T08:35:09;8.23;;;4.10;;
77948;SDS011;67146;51.236;-0.336;2023-04-24T08:37:34;8.90;;;4.15;;
77948;SDS011;67146;51.236;-0.336;2023-04-24T08:40:01;9.32;;;4.75;;
77948;SDS011;67146;51.236;-0.336;2023-04-24T08:42:28;9.75;;;4.25;;
77948;SDS011;67146;51.236;-0.336;2023-04-24T08:44:53;7.93;;;3.78;;
77948;SDS011;67146;51.236;-0.336;2023-04-24T08:47:20;10.10;;;4.50;;
77948;SDS011;67146;51.236;-0.336;2023-04-24T08:49:46;8.55;;;4.20;;
77948;SDS011;67146;51.236;-0.336;2023-04-24T08:52:13;8.55;;;3.85;;
77948;SDS011;67146;51.236;-0.336;2023-04-24T08:54:38;10.18;;;4.10;;
77948;SDS011;67146;51.236;-0.336;2023-04-24T08:57:04;9.18;;;3.90;;
77948;SDS011;67146;51.236;-0.336;2023-04-24T08:59:31;10.55;;;3.92;;
77948;SDS011;67146;51.236;-0.336;2023-04-24T09:01:56;10.90;;;4.28;;
77948;SDS011;67146;51.236;-0.336;2023-04-24T09:04:23;10.18;;;3.78;;
77948;SDS011;67146;51.236;-0.336;2023-04-24T09:06:54;9.73;;;4.38;;
77948;SDS011;67146;51.236;-0.336;2023-04-24T09:09:20;9.77;;;4.25;;
77948;SDS011;67146;51.236;-0.336;2023-04-24T09:11:46;12.35;;;4.28;;
77948;SDS011;67146;51.236;-0.336;2023-04-24T09:14:11;10.40;;;4.05;;
77948;SDS011;67146;51.236;-0.336;2023-04-24T09:16:38;11.18;;;4.15;;
77948;SDS011;67146;51.236;-0.336;2023-04-24T09:19:03;8.77;;;4.20;;
77948;SDS011;67146;51.236;-0.336;2023-04-24T09:21:32;11.27;;;3.75;;
77948;SDS011;67146;51.236;-0.336;2023-04-24T09:24:03;8.10;;;3.63;;
77948;SDS011;67146;51.236;-0.336;2023-04-24T09:26:31;9.88;;;3.90;;
77948;SDS011;67146;51.236;-0.336;2023-04-24T09:29:00;9.18;;;4.20;;
77948;SDS011;67146;51.236;-0.336;2023-04-24T09:31:29;8.65;;;3.60;;
77948;SDS011;67146;51.236;-0.336;2023-04-24T09:33:55;7.60;;;3.00;;
77948;SDS011;67146;51.236;-0.336;2023-04-24T09:36:37;7.30;;;3.70;;
77948;SDS011;67146;51.236;-0.336;2023-04-24T09:39:07;9.32;;;3.25;;
77948;SDS011;67146;51.236;-0.336;2023-04-24T09:41:36;7.47;;;3.42;;
77948;SDS011;67146;51.236;-0.336;2023-04-24T09:44:13;8.40;;;3.72;;
77948;SDS011;67146;51.236;-0.336;2023-04-24T09:46:51;14.48;;;3.80;;
77948;SDS011;67146;51.236;-0.336;2023-04-24T09:49:24;9.15;;;4.68;;
77948;SDS011;67146;51.236;-0.336;2023-04-24T09:51:51;7.85;;;3.50;;
77948;SDS011;67146;51.236;-0.336;2023-04-24T09:54:18;8.13;;;3.75;;
77948;SDS011;67146;51.236;-0.336;2023-04-24T09:56:49;9.40;;;4.07;;
77948;SDS011;67146;51.236;-0.336;2023-04-24T09:59:16;9.18;;;3.92;;
77948;SDS011;67146;51.236;-0.336;2023-04-24T10:01:42;9.07;;;3.35;;
77948;SDS011;67146;51.236;-0.336;2023-04-24T10:04:19;8.50;;;3.50;;
77948;SDS011;67146;51.236;-0.336;2023-04-24T10:06:46;8.90;;;3.95;;
77948;SDS011;67146;51.236;-0.336;2023-04-24T10:09:14;8.20;;;3.13;;
77948;SDS011;67146;51.236;-0.336;2023-04-24T10:11:44;10.25;;;4.20;;
77948;SDS011;67146;51.236;-0.336;2023-04-24T10:14:15;8.70;;;3.08;;
77948;SDS011;67146;51.236;-0.336;2023-04-24T10:16:42;7.47;;;3.10;;
77948;SDS011;67146;51.236;-0.336;2023-04-24T10:19:08;7.78;;;3.50;;
77948;SDS011;67146;51.236;-0.336;2023-04-24T10:21:34;7.63;;;3.35;;
77948;SDS011;67146;51.236;-0.336;2023-04-24T10:24:00;8.80;;;4.32;;
77948;SDS011;67146;51.236;-0.336;2023-04-24T10:31:18;12.57;;;4.07;;
77948;SDS011;67146;51.236;-0.336;2023-04-24T10:33:44;7.45;;;3.45;;
77948;SDS011;67146;51.236;-0.336;2023-04-24T10:36:10;7.32;;;3.40;;
77948;SDS011;67146;51.236;-0.336;2023-04-24T10:38:37;9.00;;;3.22;;
77948;SDS011;67146;51.236;-0.336;2023-04-24T10:41:09;7.88;;;3.10;;
77948;SDS011;67146;51.236;-0.336;2023-04-24T10:43:40;8.90;;;3.15;;
77948;SDS011;67146;51.236;-0.336;2023-04-24T10:46:07;10.35;;;2.95;;
77948;SDS011;67146;51.236;-0.336;2023-04-24T10:48:33;8.30;;;4.55;;
77948;SDS011;67146;51.236;-0.336;2023-04-24T10:50:59;7.90;;;4.55;;
77948;SDS011;67146;51.236;-0.336;2023-04-24T10:53:26;9.65;;;4.88;;
77948;SDS011;67146;51.236;-0.336;2023-04-24T10:56:03;9.20;;;3.85;;
77948;SDS011;67146;51.236;-0.336;2023-04-24T10:58:37;9.73;;;4.28;;
77948;SDS011;67146;51.236;-0.336;2023-04-24T11:01:27;8.02;;;4.00;;
77948;SDS011;67146;51.236;-0.336;2023-04-24T11:03:57;7.93;;;3.42;;
77948;SDS011;67146;51.236;-0.336;2023-04-24T11:06:30;8.25;;;3.70;;
77948;SDS011;67146;51.236;-0.336;2023-04-24T11:11:29;7.95;;;3.33;;
77948;SDS011;67146;51.236;-0.336;2023-04-24T11:18:52;8.30;;;3.67;;
77948;SDS011;67146;51.236;-0.336;2023-04-24T11:21:22;7.20;;;3.78;;
77948;SDS011;67146;51.236;-0.336;2023-04-24T11:23:47;10.10;;;3.55;;
77948;SDS011;67146;51.236;-0.336;2023-04-24T11:26:14;8.02;;;3.47;;
77948;SDS011;67146;51.236;-0.336;2023-04-24T11:28:46;8.65;;;2.90;;
77948;SDS011;67146;51.236;-0.336;2023-04-24T11:34:10;6.65;;;2.65;;
77948;SDS011;67146;51.236;-0.336;2023-04-24T11:36:38;5.97;;;2.17;;
77948;SDS011;67146;51.236;-0.336;2023-04-24T11:39:04;6.65;;;2.15;;
77948;SDS011;67146;51.236;-0.336;2023-04-24T11:41:29;6.25;;;1.92;;
77948;SDS011;67146;51.236;-0.336;2023-04-24T11:43:55;7.15;;;2.40;;
77948;SDS011;67146;51.236;-0.336;2023-04-24T11:46:21;6.03;;;2.05;;
77948;SDS011;67146;51.236;-0.336;2023-04-24T11:48:47;6.55;;;2.22;;
77948;SDS011;67146;51.236;-0.336;2023-04-24T11:51:13;6.38;;;2.75;;
77948;SDS011;67146;51.236;-0.336;2023-04-24T11:53:39;5.75;;;2.35;;
77948;SDS011;67146;51.236;-0.336;2023-04-24T11:56:04;7.25;;;2.85;;
77948;SDS011;67146;51.236;-0.336;2023-04-24T11:58:39;6.03;;;2.60;;
77948;SDS011;67146;51.236;-0.336;2023-04-24T12:01:04;7.05;;;2.75;;
77948;SDS011;67146;51.236;-0.336;2023-04-24T12:03:30;5.47;;;2.38;;
77948;SDS011;67146;51.236;-0.336;2023-04-24T12:06:06;5.00;;;1.98;;
77948;SDS011;67146;51.236;-0.336;2023-04-24T12:08:32;6.20;;;2.28;;
77948;SDS011;67146;51.236;-0.336;2023-04-24T12:10:59;6.65;;;2.30;;
77948;SDS011;67146;51.236;-0.336;2023-04-24T12:13:26;5.25;;;2.30;;
77948;SDS011;67146;51.236;-0.336;2023-04-24T12:15:51;8.43;;;2.33;;
77948;SDS011;67146;51.236;-0.336;2023-04-24T12:18:16;8.13;;;2.70;;
77948;SDS011;67146;51.236;-0.336;2023-04-24T12:20:42;6.20;;;2.22;;
77948;SDS011;67146;51.236;-0.336;2023-04-24T12:23:07;8.13;;;2.95;;
77948;SDS011;67146;51.236;-0.336;2023-04-24T12:25:33;5.40;;;2.22;;
77948;SDS011;67146;51.236;-0.336;2023-04-24T12:30:31;6.15;;;2.45;;
77948;SDS011;67146;51.236;-0.336;2023-04-24T12:32:59;7.88;;;2.90;;
77948;SDS011;67146;51.236;-0.336;2023-04-24T12:35:26;8.02;;;2.45;;
77948;SDS011;67146;51.236;-0.336;2023-04-24T12:37:53;7.47;;;2.90;;
77948;SDS011;67146;51.236;-0.336;2023-04-24T12:40:19;9.23;;;3.25;;
77948;SDS011;67146;51.236;-0.336;2023-04-24T12:42:46;7.78;;;2.83;;
77948;SDS011;67146;51.236;-0.336;2023-04-24T12:50:06;6.63;;;2.00;;
77948;SDS011;67146;51.236;-0.336;2023-04-24T12:52:33;5.88;;;2.35;;
77948;SDS011;67146;51.236;-0.336;2023-04-24T12:54:59;6.47;;;2.55;;
77948;SDS011;67146;51.236;-0.336;2023-04-24T12:57:26;9.00;;;3.10;;
77948;SDS011;67146;51.236;-0.336;2023-04-24T12:59:56;10.07;;;2.75;;
77948;SDS011;67146;51.236;-0.336;2023-04-24T13:02:23;6.53;;;2.50;;
77948;SDS011;67146;51.236;-0.336;2023-04-24T13:04:55;6.70;;;2.20;;
77948;SDS011;67146;51.236;-0.336;2023-04-24T13:07:22;6.75;;;2.53;;
77948;SDS011;67146;51.236;-0.336;2023-04-24T13:09:47;7.03;;;4.07;;
77948;SDS011;67146;51.236;-0.336;2023-04-24T13:12:13;8.68;;;2.90;;
77948;SDS011;67146;51.236;-0.336;2023-04-24T13:14:39;6.38;;;2.42;;
77948;SDS011;67146;51.236;-0.336;2023-04-24T13:17:05;7.85;;;2.70;;
77948;SDS011;67146;51.236;-0.336;2023-04-24T13:19:35;6.78;;;2.35;;
77948;SDS011;67146;51.236;-0.336;2023-04-24T13:22:01;7.65;;;2.00;;
77948;SDS011;67146;51.236;-0.336;2023-04-24T13:24:26;8.70;;;2.90;;
77948;SDS011;67146;51.236;-0.336;2023-04-24T13:26:52;7.57;;;2.33;;
77948;SDS011;67146;51.236;-0.336;2023-04-24T13:29:18;6.85;;;2.45;;
77948;SDS011;67146;51.236;-0.336;2023-04-24T13:31:43;6.00;;;2.65;;
77948;SDS011;67146;51.236;-0.336;2023-04-24T13:34:09;7.22;;;2.75;;
77948;SDS011;67146;51.236;-0.336;2023-04-24T13:36:34;6.80;;;2.60;;
77948;SDS011;67146;51.236;-0.336;2023-04-24T13:39:00;7.53;;;2.50;;
77948;SDS011;67146;51.236;-0.336;2023-04-24T13:41:26;7.45;;;2.13;;
77948;SDS011;67146;51.236;-0.336;2023-04-24T13:43:51;6.70;;;2.83;;
77948;SDS011;67146;51.236;-0.336;2023-04-24T13:46:16;7.40;;;2.60;;
77948;SDS011;67146;51.236;-0.336;2023-04-24T13:48:42;8.68;;;2.67;;
77948;SDS011;67146;51.236;-0.336;2023-04-24T13:51:07;6.35;;;2.05;;
77948;SDS011;67146;51.236;-0.336;2023-04-24T13:53:32;5.65;;;2.05;;
77948;SDS011;67146;51.236;-0.336;2023-04-24T13:56:01;6.88;;;2.10;;
77948;SDS011;67146;51.236;-0.336;2023-04-24T13:58:27;6.28;;;1.95;;
77948;SDS011;67146;51.236;-0.336;2023-04-24T14:00:52;5.38;;;1.70;;
77948;SDS011;67146;51.236;-0.336;2023-04-24T14:03:17;7.32;;;2.53;;
77948;SDS011;67146;51.236;-0.336;2023-04-24T14:05:43;7.50;;;2.53;;
77948;SDS011;67146;51.236;-0.336;2023-04-24T14:08:08;6.57;;;2.30;;
77948;SDS011;67146;51.236;-0.336;2023-04-24T14:10:33;5.27;;;2.20;;
77948;SDS011;67146;51.236;-0.336;2023-04-24T14:12:59;7.35;;;2.10;;
77948;SDS011;67146;51.236;-0.336;2023-04-24T14:15:24;9.02;;;2.90;;
77948;SDS011;67146;51.236;-0.336;2023-04-24T14:17:50;8.02;;;2.40;;
77948;SDS011;67146;51.236;-0.336;2023-04-24T14:20:15;6.05;;;2.38;;
77948;SDS011;67146;51.236;-0.336;2023-04-24T14:22:40;8.95;;;2.67;;
77948;SDS011;67146;51.236;-0.336;2023-04-24T14:25:06;8.70;;;3.30;;
77948;SDS011;67146;51.236;-0.336;2023-04-24T14:27:32;8.18;;;3.13;;
77948;SDS011;67146;51.236;-0.336;2023-04-24T14:29:57;10.10;;;3.80;;
77948;SDS011;67146;51.236;-0.336;2023-04-24T14:32:22;7.78;;;3.53;;
77948;SDS011;67146;51.236;-0.336;2023-04-24T14:34:48;7.85;;;3.38;;
77948;SDS011;67146;51.236;-0.336;2023-04-24T14:37:13;8.10;;;3.13;;
77948;SDS011;67146;51.236;-0.336;2023-04-24T14:39:39;9.07;;;3.70;;